Time;durP1;ratioP1;P1;durP2;ratioP2;P2;SDS_P1;SDS_P2;PMS_P1;PMS_P2;Temp;Humidity;BMP_temperature;BMP_pressure;BME280_temperature;BME280_humidity;BME280_pressure;Samples;Min_cycle;Max_cycle;Signal;HPM_P1;HPM_P2
2024/01/02 00:02:10;;;;;;;24.58;5.70;;;;;;;8.88;100.00;97463.59;5078309;28;20055;-47
2024/01/02 00:04:38;;;;;;;31.13;8.25;;;;;;;8.91;100.00;97465.53;5087024;28;20099;-51
2024/01/02 00:07:07;;;;;;;36.65;6.47;;;;;;;8.93;100.00;97465.88;5087934;28;20113;-50
2024/01/02 00:09:34;;;;;;;26.58;4.90;;;;;;;8.96;100.00;97478.84;5089629;28;20056;-49
2024/01/02 00:12:02;;;;;;;37.83;7.00;;;;;;;8.95;100.00;97474.53;5089490;28;20032;-45
2024/01/02 00:14:30;;;;;;;33.42;7.75;;;;;;;8.93;100.00;97476.91;5089924;28;20043;-45
2024/01/02 00:16:57;;;;;;;32.20;5.18;;;;;;;8.89;100.00;97465.16;5089356;28;20410;-48
2024/01/02 00:19:25;;;;;;;36.70;7.90;;;;;;;8.87;100.00;97467.53;5089835;28;20050;-46
2024/01/02 00:21:53;;;;;;;24.13;4.78;;;;;;;8.87;100.00;97478.56;5083368;28;20053;-46
2024/01/02 00:24:20;;;;;;;29.70;5.85;;;;;;;8.87;100.00;97473.06;5082413;28;20048;-51
2024/01/02 00:26:47;;;;;;;31.67;5.82;;;;;;;8.90;100.00;97474.97;5089111;28;20040;-50
2024/01/02 00:29:15;;;;;;;33.97;5.88;;;;;;;8.94;100.00;97470.22;5088885;28;20044;-47
2024/01/02 00:31:44;;;;;;;26.50;5.47;;;;;;;8.96;100.00;97456.78;5078741;28;20032;-45
2024/01/02 00:34:13;;;;;;;26.05;5.72;;;;;;;8.97;100.00;97471.38;5086078;28;20059;-47
2024/01/02 00:36:40;;;;;;;22.92;5.45;;;;;;;8.97;100.00;97480.44;5081433;28;20048;-51
2024/01/02 00:39:08;;;;;;;35.60;5.47;;;;;;;8.97;100.00;97491.47;5070660;28;20052;-45
2024/01/02 00:41:35;;;;;;;26.63;5.65;;;;;;;9.00;100.00;97493.38;5089582;28;20044;-51
2024/01/02 00:44:03;;;;;;;34.30;6.00;;;;;;;9.00;100.00;97498.91;5088673;28;20405;-47
2024/01/02 00:46:30;;;;;;;23.73;4.97;;;;;;;8.99;100.00;97497.34;5089557;28;20033;-46
2024/01/02 00:48:58;;;;;;;31.70;5.35;;;;;;;8.98;100.00;97517.84;5070332;28;20379;-50
2024/01/02 00:51:25;;;;;;;29.33;4.63;;;;;;;8.98;100.00;97523.38;5089026;28;20074;-45
2024/01/02 00:53:52;;;;;;;21.10;3.53;;;;;;;8.99;100.00;97535.19;5087979;28;20040;-48
2024/01/02 00:56:20;;;;;;;26.98;4.30;;;;;;;8.99;100.00;97541.50;5089079;28;20051;-52
2024/01/02 00:58:47;;;;;;;32.60;7.25;;;;;;;8.96;100.00;97531.28;5088792;28;20044;-47
2024/01/02 01:01:14;;;;;;;29.02;5.53;;;;;;;8.91;100.00;97528.97;5088092;28;20051;-47
2024/01/02 01:03:42;;;;;;;29.25;6.15;;;;;;;8.86;100.00;97542.44;5088104;28;20043;-46
2024/01/02 01:06:09;;;;;;;35.22;4.72;;;;;;;8.77;100.00;97540.16;5071346;28;20110;-47
2024/01/02 01:08:36;;;;;;;23.77;4.57;;;;;;;8.71;100.00;97535.53;5088454;28;20379;-45
2024/01/02 01:11:04;;;;;;;20.70;4.32;;;;;;;8.64;100.00;97549.38;5088337;28;20052;-47
2024/01/02 01:13:33;;;;;;;24.42;4.95;;;;;;;8.57;100.00;97545.50;5089102;28;20051;-44
2024/01/02 01:16:00;;;;;;;24.42;5.32;;;;;;;8.52;100.00;97531.38;5070324;28;20070;-44
2024/01/02 01:18:27;;;;;;;24.23;6.30;;;;;;;8.47;100.00;97535.34;5087720;28;20051;-45
2024/01/02 01:20:55;;;;;;;22.33;4.38;;;;;;;8.44;100.00;97532.66;5088030;28;20517;-47
2024/01/02 01:23:22;;;;;;;26.90;7.45;;;;;;;8.42;100.00;97548.78;5088657;28;20746;-46
2024/01/02 01:25:49;;;;;;;26.30;4.15;;;;;;;8.43;100.00;97531.06;5087811;28;20048;-46
2024/01/02 01:28:17;;;;;;;21.65;4.60;;;;;;;8.40;100.00;97532.66;5088652;28;20055;-46
2024/01/02 01:30:44;;;;;;;24.98;5.72;;;;;;;8.38;100.00;97523.25;5088394;28;20036;-46
2024/01/02 01:33:11;;;;;;;20.00;3.92;;;;;;;8.35;100.00;97546.91;5088250;28;20047;-45
2024/01/02 01:35:39;;;;;;;20.83;4.93;;;;;;;8.33;100.00;97541.00;5088483;28;20513;-49
2024/01/02 01:38:06;;;;;;;27.25;3.70;;;;;;;8.33;100.00;97532.75;5087844;28;20043;-50
2024/01/02 01:40:34;;;;;;;27.38;4.35;;;;;;;8.32;100.00;97527.63;5088078;28;20040;-52
2024/01/02 01:43:02;;;;;;;23.27;5.25;;;;;;;8.32;100.00;97530.38;5087956;28;20667;-46
2024/01/02 01:45:29;;;;;;;21.05;3.88;;;;;;;8.29;100.00;97526.47;5087767;28;20059;-46
2024/01/02 01:47:56;;;;;;;20.55;3.50;;;;;;;8.30;100.00;97521.75;5087606;28;20044;-46
2024/01/02 01:50:24;;;;;;;20.27;5.03;;;;;;;8.27;100.00;97533.59;5074475;28;20457;-46
2024/01/02 01:52:51;;;;;;;17.83;3.42;;;;;;;8.27;100.00;97528.84;5087570;28;20044;-46
2024/01/02 01:55:19;;;;;;;24.27;6.03;;;;;;;8.30;100.00;97524.50;5087194;28;20494;-45
2024/01/02 01:57:47;;;;;;;26.00;4.22;;;;;;;8.30;100.00;97527.25;5088231;28;20040;-52
2024/01/02 02:00:14;;;;;;;19.73;4.53;;;;;;;8.32;100.00;97541.41;5087079;28;20044;-49
2024/01/02 02:02:42;;;;;;;17.17;5.10;;;;;;;8.32;100.00;97536.69;5087646;28;20063;-46
2024/01/02 02:05:10;;;;;;;20.65;4.20;;;;;;;8.32;100.00;97552.44;5087038;28;20048;-51
2024/01/02 02:07:41;;;;;;;22.33;4.32;;;;;;;8.32;100.00;97546.91;5088089;28;20051;-45
2024/01/02 02:10:09;;;;;;;17.88;3.47;;;;;;;8.33;100.00;97556.75;5086065;28;20421;-51
2024/01/02 02:12:37;;;;;;;11.80;3.30;;;;;;;8.31;100.00;97546.13;5087025;28;20036;-47
2024/01/02 02:15:05;;;;;;;28.98;4.00;;;;;;;8.31;100.00;97553.63;5087012;28;20048;-45
2024/01/02 02:17:42;;;;;;;16.95;4.05;;;;;;;8.29;100.00;97545.75;5087226;28;20047;-46
2024/01/02 02:20:10;;;;;;;17.15;3.35;;;;;;;8.28;100.00;97546.19;5086446;28;20048;-47
2024/01/02 02:22:40;;;;;;;16.48;3.30;;;;;;;8.27;100.00;97558.38;5087617;28;20489;-47
2024/01/02 02:25:08;;;;;;;16.70;4.20;;;;;;;8.27;100.00;97566.66;5085109;28;20044;-48
2024/01/02 02:27:35;;;;;;;19.92;5.57;;;;;;;8.25;100.00;97550.50;5085989;28;20063;-55
2024/01/02 02:30:03;;;;;;;16.70;3.47;;;;;;;8.25;100.00;97553.25;5087284;28;20055;-46
2024/01/02 02:32:31;;;;;;;27.05;4.85;;;;;;;8.24;100.00;97557.19;5066027;28;20048;-48
2024/01/02 02:34:58;;;;;;;18.08;2.70;;;;;;;8.24;100.00;97537.91;5080119;28;20056;-46
2024/01/02 02:37:26;;;;;;;22.80;3.28;;;;;;;8.24;100.00;97531.59;5085251;28;20040;-45
2024/01/02 02:39:53;;;;;;;24.08;3.78;;;;;;;8.23;100.00;97532.81;5083796;28;20051;-51
2024/01/02 02:42:20;;;;;;;15.52;3.53;;;;;;;8.20;100.00;97528.91;5086871;28;20698;-45
2024/01/02 02:44:47;;;;;;;18.27;4.32;;;;;;;8.20;100.00;97530.88;5066363;28;20044;-47
2024/01/02 02:47:15;;;;;;;24.50;5.07;;;;;;;8.20;100.00;97539.13;5086569;28;20077;-45
2024/01/02 02:49:43;;;;;;;21.73;3.40;;;;;;;8.19;100.00;97538.34;5079820;28;20051;-48
2024/01/02 02:52:10;;;;;;;18.77;3.35;;;;;;;8.18;100.00;97536.00;5086467;28;20044;-46
2024/01/02 02:54:39;;;;;;;25.25;4.00;;;;;;;8.15;100.00;97520.28;5085868;28;20048;-46
2024/01/02 02:57:06;;;;;;;27.08;4.90;;;;;;;8.13;100.00;97531.69;5086577;28;20040;-45
2024/01/02 02:59:33;;;;;;;22.67;3.65;;;;;;;8.12;100.00;97515.59;5086439;28;20036;-46
2024/01/02 03:02:01;;;;;;;14.55;3.70;;;;;;;8.09;100.00;97514.44;5080344;28;20060;-46
2024/01/02 03:04:28;;;;;;;13.07;3.08;;;;;;;8.08;100.00;97521.13;5069632;28;20071;-50
2024/01/02 03:06:56;;;;;;;24.42;4.18;;;;;;;8.09;100.00;97527.41;5065558;28;20044;-45
2024/01/02 03:09:23;;;;;;;25.58;4.85;;;;;;;8.08;100.00;97520.34;5069856;28;20750;-52
2024/01/02 03:11:50;;;;;;;13.15;3.08;;;;;;;8.07;100.00;97516.81;5069898;28;20040;-45
2024/01/02 03:14:18;;;;;;;18.15;4.22;;;;;;;8.06;100.00;97517.22;5077196;28;20048;-45
2024/01/02 03:16:45;;;;;;;11.02;3.10;;;;;;;8.04;100.00;97511.31;5055383;28;20564;-47
2024/01/02 03:19:12;;;;;;;16.55;3.50;;;;;;;8.04;100.00;97508.56;5069514;28;20057;-47
2024/01/02 03:21:40;;;;;;;20.08;4.22;;;;;;;8.04;100.00;97509.38;5068118;28;20051;-48
2024/01/02 03:24:08;;;;;;;15.77;2.58;;;;;;;8.05;100.00;97499.88;5070802;28;20059;-49
2024/01/02 03:26:35;;;;;;;16.52;3.10;;;;;;;8.05;100.00;97505.41;5071955;28;20072;-47
2024/01/02 03:29:02;;;;;;;19.45;3.30;;;;;;;8.06;100.00;97495.16;5082588;28;20796;-49
2024/01/02 03:31:30;;;;;;;21.95;4.45;;;;;;;8.06;100.00;97506.19;5076973;28;20362;-47
2024/01/02 03:33:57;;;;;;;16.83;3.50;;;;;;;8.08;100.00;97498.28;5070426;28;20079;-48
2024/01/02 03:36:24;;;;;;;28.95;4.85;;;;;;;8.10;100.00;97501.44;5075501;28;20079;-53
2024/01/02 03:38:53;;;;;;;18.17;2.78;;;;;;;8.09;100.00;97506.16;5081008;28;20055;-49
2024/01/02 03:41:20;;;;;;;24.90;4.82;;;;;;;8.13;100.00;97514.41;5079122;28;20412;-49
2024/01/02 03:43:49;;;;;;;29.73;3.72;;;;;;;8.16;100.00;97513.56;5070855;28;20448;-47
2024/01/02 03:46:16;;;;;;;21.23;4.05;;;;;;;8.16;100.00;97511.59;5076522;28;20076;-46
2024/01/02 03:48:44;;;;;;;18.85;3.30;;;;;;;8.15;100.00;97514.78;5072530;28;20048;-46
2024/01/02 03:51:12;;;;;;;20.40;4.43;;;;;;;8.14;100.00;97511.22;5071496;28;20882;-49
2024/01/02 03:53:39;;;;;;;14.55;2.75;;;;;;;8.17;100.00;97512.38;5071044;28;20410;-45
2024/01/02 03:56:10;;;;;;;11.38;3.00;;;;;;;8.18;100.00;97497.44;5073720;28;20079;-48
2024/01/02 03:58:39;;;;;;;18.25;4.60;;;;;;;8.20;100.00;97501.34;5070926;28;20033;-47
2024/01/02 04:01:06;;;;;;;23.23;3.90;;;;;;;8.21;100.00;97499.34;5080496;28;20072;-49
2024/01/02 04:03:34;;;;;;;20.98;3.33;;;;;;;8.21;100.00;97499.34;5077617;28;20053;-46
2024/01/02 04:06:01;;;;;;;23.75;4.95;;;;;;;8.23;100.00;97502.50;5081377;28;20044;-46
2024/01/02 04:08:29;;;;;;;20.05;3.20;;;;;;;8.23;100.00;97510.78;5085134;28;20578;-46
2024/01/02 04:10:57;;;;;;;15.13;3.90;;;;;;;8.24;100.00;97501.28;5081096;28;20052;-47
2024/01/02 04:13:25;;;;;;;8.88;3.15;;;;;;;8.24;100.00;97501.28;5073953;28;20032;-46
2024/01/02 04:15:52;;;;;;;13.52;2.83;;;;;;;8.25;100.00;97506.41;5065526;28;20040;-46
2024/01/02 04:18:19;;;;;;;20.83;3.47;;;;;;;8.26;100.00;97499.69;5083395;28;20041;-46
2024/01/02 04:20:47;;;;;;;14.23;3.80;;;;;;;8.25;100.00;97491.84;5069060;28;20055;-49
2024/01/02 04:23:14;;;;;;;16.50;2.72;;;;;;;8.24;100.00;97490.28;5074488;28;20045;-47
2024/01/02 04:25:42;;;;;;;13.75;2.78;;;;;;;8.24;100.00;97482.78;5073452;28;20064;-45
2024/01/02 04:28:10;;;;;;;16.52;2.70;;;;;;;8.25;100.00;97486.34;5068587;28;20036;-46
2024/01/02 04:30:37;;;;;;;12.52;3.85;;;;;;;8.25;100.00;97486.34;5072707;28;20036;-45
2024/01/02 04:33:04;;;;;;;13.82;3.75;;;;;;;8.23;100.00;97483.22;5079879;28;20058;-48
2024/01/02 04:35:31;;;;;;;13.13;3.25;;;;;;;8.23;100.00;97481.25;5075318;28;20379;-47
2024/01/02 04:37:59;;;;;;;12.15;2.22;;;;;;;8.23;100.00;97477.69;5076020;28;20052;-48
2024/01/02 04:40:26;;;;;;;21.00;2.83;;;;;;;8.24;100.00;97482.00;5076368;28;20048;-52
2024/01/02 04:42:54;;;;;;;26.02;4.13;;;;;;;8.22;100.00;97465.09;5065432;28;20053;-49
2024/01/02 04:45:21;;;;;;;17.10;3.45;;;;;;;8.20;100.00;97467.50;5069095;28;20049;-53
2024/01/02 04:47:48;;;;;;;15.05;3.45;;;;;;;8.18;100.00;97467.88;5068190;28;20036;-52
2024/01/02 04:50:16;;;;;;;23.83;3.85;;;;;;;8.17;100.00;97458.06;5070268;28;20049;-51
2024/01/02 04:52:43;;;;;;;12.38;2.50;;;;;;;8.18;100.00;97453.34;5079686;28;20036;-50
2024/01/02 04:55:11;;;;;;;14.65;2.80;;;;;;;8.16;100.00;97452.94;5081241;28;20431;-46
2024/01/02 04:57:38;;;;;;;15.85;2.83;;;;;;;8.16;100.00;97463.97;5073948;28;20040;-51
2024/01/02 05:00:06;;;;;;;20.67;3.53;;;;;;;8.18;100.00;97458.84;5072160;28;20063;-48
2024/01/02 05:02:33;;;;;;;14.00;3.63;;;;;;;8.17;100.00;97465.56;5068822;28;20048;-47
2024/01/02 05:05:01;;;;;;;18.73;3.90;;;;;;;8.18;100.00;97453.34;5070762;28;20060;-45
2024/01/02 05:07:28;;;;;;;23.33;3.95;;;;;;;8.18;100.00;97448.59;5081981;28;20036;-48
2024/01/02 05:09:57;;;;;;;14.50;2.60;;;;;;;8.19;100.00;97443.88;5076959;28;20055;-48
2024/01/02 05:12:24;;;;;;;16.27;2.60;;;;;;;8.19;100.00;97433.63;5082299;28;20040;-48
2024/01/02 05:14:52;;;;;;;10.77;2.58;;;;;;;8.19;100.00;97438.34;5074975;28;20371;-49
2024/01/02 05:17:19;;;;;;;16.77;4.95;;;;;;;8.18;100.00;97434.81;5077913;28;20048;-52
2024/01/02 05:19:46;;;;;;;19.13;2.97;;;;;;;8.19;100.00;97444.66;5074895;28;20056;-49
2024/01/02 05:22:14;;;;;;;14.25;3.38;;;;;;;8.18;100.00;97453.34;5076551;28;20637;-50
2024/01/02 05:24:41;;;;;;;16.10;3.38;;;;;;;8.18;100.00;97448.59;5082047;28;20074;-50
2024/01/02 05:27:08;;;;;;;21.17;4.55;;;;;;;8.17;100.00;97440.75;5058089;28;20045;-50
2024/01/02 05:29:39;;;;;;;17.70;4.40;;;;;;;8.16;100.00;97444.69;5066896;28;20056;-48
2024/01/02 05:32:06;;;;;;;16.88;2.85;;;;;;;8.18;100.00;97458.84;5070901;28;20048;-46
2024/01/02 05:34:33;;;;;;;24.40;5.07;;;;;;;8.17;100.00;97436.03;5055968;28;20071;-49
2024/01/02 05:37:01;;;;;;;18.73;3.85;;;;;;;8.19;100.00;97443.88;5067706;28;20047;-46
2024/01/02 05:39:28;;;;;;;21.70;4.38;;;;;;;8.19;100.00;97447.41;5067549;28;20051;-46
2024/01/02 05:41:55;;;;;;;18.27;3.38;;;;;;;8.20;100.00;97439.94;5069381;28;20052;-46
2024/01/02 05:44:22;;;;;;;16.50;2.47;;;;;;;8.20;100.00;97428.91;5071924;28;20045;-46
2024/01/02 05:46:50;;;;;;;20.23;3.80;;;;;;;8.21;100.00;97442.28;5079481;28;20107;-49
2024/01/02 05:49:17;;;;;;;23.40;4.78;;;;;;;8.23;100.00;97442.66;5073198;28;20051;-48
2024/01/02 05:51:45;;;;;;;21.98;5.30;;;;;;;8.24;100.00;97435.94;5076753;28;20051;-50
2024/01/02 05:54:12;;;;;;;18.30;3.40;;;;;;;8.26;100.00;97435.56;5084415;28;20039;-50
2024/01/02 05:56:39;;;;;;;17.40;3.30;;;;;;;8.27;100.00;97417.84;5074879;28;20056;-51
2024/01/02 05:59:07;;;;;;;21.30;3.63;;;;;;;8.27;100.00;97420.59;5077984;28;20044;-48
2024/01/02 06:01:35;;;;;;;19.05;3.05;;;;;;;8.26;100.00;97419.00;5070413;28;20048;-46
2024/01/02 06:04:02;;;;;;;13.82;3.22;;;;;;;8.27;100.00;97415.06;5080840;28;20856;-46
2024/01/02 06:06:29;;;;;;;25.55;5.13;;;;;;;8.28;100.00;97420.19;5076202;28;20058;-46
2024/01/02 06:08:57;;;;;;;24.65;4.03;;;;;;;8.29;100.00;97423.72;5073507;28;20040;-52
2024/01/02 06:11:24;;;;;;;22.70;6.63;;;;;;;8.31;100.00;97426.88;5072896;28;20045;-51
2024/01/02 06:13:52;;;;;;;13.82;3.85;;;;;;;8.32;100.00;97420.13;5082466;28;20047;-46
2024/01/02 06:16:19;;;;;;;20.17;3.17;;;;;;;8.34;100.00;97407.50;5075439;28;20064;-50
2024/01/02 06:18:46;;;;;;;19.42;3.55;;;;;;;8.36;100.00;97412.63;5067231;28;20067;-48
2024/01/02 06:21:14;;;;;;;20.00;3.67;;;;;;;8.38;100.00;97407.47;5080674;28;20040;-53
2024/01/02 06:23:42;;;;;;;22.67;3.58;;;;;;;8.38;100.00;97410.22;5072107;28;20051;-50
2024/01/02 06:26:22;;;;;;;22.02;3.58;;;;;;;8.37;100.00;97406.69;5073609;28;20037;-47
2024/01/02 06:28:49;;;;;;;21.45;3.15;;;;;;;8.39;100.00;97411.81;5070646;28;20071;-50
2024/01/02 06:31:20;;;;;;;12.40;2.75;;;;;;;8.40;100.00;97408.63;5075016;28;20049;-51
2024/01/02 06:33:47;;;;;;;14.70;3.10;;;;;;;8.41;100.00;97410.19;5076894;28;20040;-48
2024/01/02 06:36:16;;;;;;;13.30;2.80;;;;;;;8.42;100.00;97408.19;5076152;28;20517;-46
2024/01/02 06:38:44;;;;;;;18.65;4.28;;;;;;;8.45;100.00;97401.88;5047320;28;20060;-47
2024/01/02 06:41:11;;;;;;;27.40;3.38;;;;;;;8.44;100.00;97392.84;5068898;28;20052;-50
2024/01/02 06:43:38;;;;;;;19.10;3.47;;;;;;;8.46;100.00;97381.41;5073709;28;20569;-47
2024/01/02 06:46:06;;;;;;;12.07;3.15;;;;;;;8.46;100.00;97381.41;5069457;28;20059;-54
2024/01/02 06:48:34;;;;;;;24.17;4.75;;;;;;;8.46;100.00;97382.19;5072747;28;20387;-52
2024/01/02 06:51:01;;;;;;;9.27;2.28;;;;;;;8.47;100.00;97391.25;5076933;28;20048;-51
2024/01/02 06:53:29;;;;;;;24.00;4.53;;;;;;;8.47;100.00;97394.75;5079619;28;20055;-47
2024/01/02 06:55:56;;;;;;;24.00;3.70;;;;;;;8.49;100.00;97391.59;5042262;28;20052;-47
2024/01/02 06:58:24;;;;;;;13.45;2.72;;;;;;;8.51;100.00;97394.72;5077089;28;20036;-50
2024/01/02 07:00:52;;;;;;;20.83;3.40;;;;;;;8.53;100.00;97386.81;5080372;28;20055;-52
2024/01/02 07:03:21;;;;;;;12.25;3.17;;;;;;;8.53;100.00;97382.09;5071129;28;20051;-51
2024/01/02 07:05:48;;;;;;;21.08;2.88;;;;;;;8.53;100.00;97373.03;5079379;28;20402;-49
2024/01/02 07:08:16;;;;;;;23.13;5.22;;;;;;;8.52;100.00;97365.97;5076812;28;20047;-47
2024/01/02 07:10:43;;;;;;;16.75;3.15;;;;;;;8.50;100.00;97354.53;5081871;28;20059;-48
2024/01/02 07:13:10;;;;;;;16.17;3.65;;;;;;;8.48;100.00;97348.66;5070975;28;20037;-47
2024/01/02 07:15:38;;;;;;;22.20;2.88;;;;;;;8.47;100.00;97349.88;5071963;28;20123;-47
2024/01/02 07:18:05;;;;;;;23.25;5.13;;;;;;;8.45;100.00;97353.03;5079074;28;20390;-50
2024/01/02 07:20:33;;;;;;;19.88;3.63;;;;;;;8.43;100.00;97349.13;5083776;28;20075;-49
2024/01/02 07:23:00;;;;;;;32.38;5.47;;;;;;;8.42;100.00;97348.34;5087527;28;20048;-47
2024/01/02 07:25:28;;;;;;;14.40;3.65;;;;;;;8.41;100.00;97338.53;5067806;28;20049;-45
2024/01/02 07:27:55;;;;;;;19.33;4.85;;;;;;;8.41;100.00;97329.47;5073127;28;20044;-46
2024/01/02 07:30:23;;;;;;;18.25;3.85;;;;;;;8.39;100.00;97329.13;5074978;28;20048;-47
2024/01/02 07:32:50;;;;;;;26.55;5.90;;;;;;;8.38;100.00;97328.34;5066594;28;20063;-55
2024/01/02 07:35:17;;;;;;;24.58;4.93;;;;;;;8.37;100.00;97321.25;5069668;28;20055;-46
2024/01/02 07:37:46;;;;;;;16.10;3.40;;;;;;;8.35;100.00;97314.59;5067607;28;20107;-45
2024/01/02 07:40:14;;;;;;;21.35;3.83;;;;;;;8.33;100.00;97319.75;5065625;28;20067;-46
2024/01/02 07:42:41;;;;;;;16.92;3.63;;;;;;;8.33;100.00;97322.50;5070779;28;20126;-45
2024/01/02 07:45:09;;;;;;;13.80;4.57;;;;;;;8.32;100.00;97315.41;5071509;28;20040;-46
2024/01/02 07:47:36;;;;;;;26.55;5.15;;;;;;;8.31;100.00;97308.34;5072694;28;20066;-46
2024/01/02 07:50:05;;;;;;;25.67;5.03;;;;;;;8.30;100.00;97293.00;5060876;28;20418;-45
2024/01/02 07:52:33;;;;;;;25.15;6.20;;;;;;;8.30;100.00;97301.28;5062845;28;20044;-45
2024/01/02 07:55:02;;;;;;;18.42;3.58;;;;;;;8.29;100.00;97294.19;5069988;28;20055;-46
2024/01/02 07:57:30;;;;;;;13.65;3.17;;;;;;;8.28;100.00;97287.91;5052817;28;20055;-50
2024/01/02 07:59:58;;;;;;;18.27;4.22;;;;;;;8.28;100.00;97276.09;5062663;28;20052;-48
2024/01/02 08:02:25;;;;;;;21.02;4.25;;;;;;;8.28;100.00;97270.59;5075070;28;20063;-46
2024/01/02 08:04:52;;;;;;;17.30;4.45;;;;;;;8.28;100.00;97267.84;5075059;28;20041;-46
2024/01/02 08:07:21;;;;;;;17.88;4.30;;;;;;;8.26;100.00;97256.44;5074589;28;20044;-46
2024/01/02 08:09:51;;;;;;;20.02;3.78;;;;;;;8.27;100.00;97255.25;5075946;28;20044;-48
2024/01/02 08:12:19;;;;;;;19.08;4.00;;;;;;;8.26;100.00;97251.66;5076781;28;20040;-47
2024/01/02 08:14:46;;;;;;;17.27;3.28;;;;;;;8.29;100.00;97255.59;5073486;28;20071;-45
2024/01/02 08:17:14;;;;;;;22.48;4.20;;;;;;;8.28;100.00;97248.56;5059004;28;20546;-45
2024/01/02 08:19:41;;;;;;;29.75;5.63;;;;;;;8.28;100.00;97240.28;5071145;28;20458;-45
2024/01/02 08:22:10;;;;;;;18.40;4.50;;;;;;;8.29;100.00;97247.34;5069183;28;20056;-47
2024/01/02 08:24:38;;;;;;;17.52;4.32;;;;;;;8.28;100.00;97237.53;5070379;28;20045;-45
2024/01/02 08:27:05;;;;;;;17.08;4.50;;;;;;;8.29;100.00;97239.06;5080473;28;20410;-45
2024/01/02 08:29:33;;;;;;;16.75;3.75;;;;;;;8.29;100.00;97233.56;5080421;28;20056;-46
2024/01/02 08:32:00;;;;;;;16.67;3.72;;;;;;;8.28;100.00;97227.28;5074570;28;20095;-47
2024/01/02 08:34:27;;;;;;;19.13;3.92;;;;;;;8.28;100.00;97232.00;5075139;28;20044;-45
2024/01/02 08:36:55;;;;;;;29.88;5.15;;;;;;;8.28;100.00;97232.81;5088824;28;20056;-48
2024/01/02 08:39:22;;;;;;;13.13;4.20;;;;;;;8.27;100.00;97224.94;5050490;28;20040;-46
2024/01/02 08:41:50;;;;;;;18.35;4.40;;;;;;;8.28;100.00;97219.03;5079641;28;20044;-48
2024/01/02 08:44:17;;;;;;;29.27;3.92;;;;;;;8.29;100.00;97222.53;5085141;28;20048;-44
2024/01/02 08:46:44;;;;;;;29.50;7.43;;;;;;;8.29;100.00;97214.25;5074389;28;20060;-45
2024/01/02 08:49:13;;;;;;;14.82;4.05;;;;;;;8.28;100.00;97213.50;5080182;28;20406;-46
2024/01/02 08:51:41;;;;;;;23.92;3.97;;;;;;;8.28;100.00;97205.25;5081170;28;20052;-44
2024/01/02 08:54:09;;;;;;;25.95;5.85;;;;;;;8.29;100.00;97206.00;5087627;28;20043;-46
2024/01/02 08:56:36;;;;;;;26.98;5.43;;;;;;;8.29;100.00;97209.53;5063610;28;20041;-45
2024/01/02 08:59:04;;;;;;;20.60;4.63;;;;;;;8.28;100.00;97194.22;5081629;28;20068;-48
2024/01/02 09:01:31;;;;;;;27.42;6.65;;;;;;;8.30;100.00;97191.03;5081284;28;20060;-45
2024/01/02 09:03:58;;;;;;;13.43;4.07;;;;;;;8.30;100.00;97193.78;5062150;28;20052;-47
2024/01/02 09:06:31;;;;;;;;;;;;;;;8.29;100.00;97192.22;5063534;28;20722;-46
2024/01/02 09:08:58;;;;;;;24.83;5.43;;;;;;;8.28;100.00;97182.41;5075043;28;19924;-45
2024/01/02 09:11:26;;;;;;;23.85;5.55;;;;;;;8.27;100.00;97181.63;5061058;28;20041;-55
2024/01/02 09:13:53;;;;;;;24.02;6.60;;;;;;;8.29;100.00;97183.94;5062140;28;20047;-45
2024/01/02 09:16:20;;;;;;;26.77;6.28;;;;;;;8.29;100.00;97186.72;5063674;28;21490;-44
2024/01/02 09:18:48;;;;;;;29.98;6.32;;;;;;;8.31;100.00;97176.06;5065860;28;20433;-50
2024/01/02 09:21:15;;;;;;;26.05;4.60;;;;;;;8.31;100.00;97181.59;5072757;28;20039;-47
2024/01/02 09:23:43;;;;;;;24.33;4.93;;;;;;;8.32;100.00;97177.63;5066278;28;20063;-45
2024/01/02 09:26:14;;;;;;;24.95;6.53;;;;;;;8.34;100.00;97172.50;5072256;28;20055;-49
2024/01/02 09:28:43;;;;;;;24.58;5.57;;;;;;;8.35;100.00;97165.75;5052992;28;20048;-47
2024/01/02 09:31:12;;;;;;;25.80;4.97;;;;;;;8.36;100.00;97165.34;5076672;28;20044;-46
2024/01/02 09:33:43;;;;;;;25.38;5.63;;;;;;;8.37;100.00;97155.09;5068919;28;20047;-46
2024/01/02 09:36:13;;;;;;;21.88;5.95;;;;;;;8.39;100.00;97144.44;5070701;28;20048;-45
2024/01/02 09:38:41;;;;;;;30.05;5.80;;;;;;;8.39;100.00;97156.22;5074746;28;20057;-47
2024/01/02 09:41:42;;;;;;;26.02;5.30;;;;;;;8.40;100.00;97146.78;5073607;28;20079;-48
2024/01/02 09:44:28;;;;;;;27.50;6.72;;;;;;;8.42;100.00;97136.09;5078815;28;20045;-45
2024/01/02 09:46:57;;;;;;;24.00;4.95;;;;;;;8.43;100.00;97134.13;5071005;28;20052;-50
2024/01/02 09:49:43;;;;;;;31.35;5.28;;;;;;;8.44;100.00;97130.97;5048851;28;20059;-47
2024/01/02 09:52:48;;;;;;;26.55;4.57;;;;;;;8.46;100.00;97117.53;5073001;28;20063;-47
2024/01/02 09:55:40;;;;;;;20.90;5.00;;;;;;;8.47;100.00;97112.81;5064735;28;20051;-47
2024/01/02 09:58:19;;;;;;;28.07;5.10;;;;;;;8.48;100.00;97119.88;5065673;28;20047;-46
2024/01/02 10:01:05;;;;;;;27.05;8.48;;;;;;;8.50;100.00;97111.97;5066031;28;20474;-46
2024/01/02 10:03:53;;;;;;;45.97;15.95;;;;;;;8.50;100.00;97107.22;5071554;28;20228;-47
2024/01/02 10:06:26;;;;;;;37.40;12.13;;;;;;;8.52;100.00;97104.81;5062858;28;20052;-51
2024/01/02 10:09:22;;;;;;;37.25;12.57;;;;;;;8.54;100.00;97102.44;5076480;28;20044;-45
2024/01/02 10:12:04;;;;;;;30.85;10.50;;;;;;;8.55;100.00;97103.22;5074388;28;20060;-48
2024/01/02 10:14:52;;;;;;;39.92;12.63;;;;;;;8.57;100.00;97101.59;5065351;28;20044;-46
2024/01/02 10:17:45;;;;;;;47.03;14.60;;;;;;;8.57;100.00;97111.84;5065807;28;20049;-46
2024/01/02 10:20:40;;;;;;;34.95;10.30;;;;;;;8.58;100.00;97103.16;5064042;28;20048;-47
2024/01/02 10:23:17;;;;;;;40.95;9.48;;;;;;;8.59;100.00;97103.94;5059624;28;20048;-47
2024/01/02 10:25:51;;;;;;;34.72;8.35;;;;;;;8.60;100.00;97097.22;5063162;28;20059;-45
2024/01/02 10:28:24;;;;;;;29.67;8.35;;;;;;;8.62;100.00;97085.78;5072516;28;20047;-45
2024/01/02 10:31:03;;;;;;;41.53;9.63;;;;;;;8.64;100.00;97100.69;5075548;28;20498;-46
2024/01/02 10:33:43;;;;;;;46.78;8.75;;;;;;;8.67;100.00;97099.84;5066534;28;20414;-51
2024/01/02 10:36:18;;;;;;;34.27;8.50;;;;;;;8.71;100.00;97100.56;5059898;28;20051;-48
2024/01/02 10:39:01;;;;;;;35.80;8.93;;;;;;;8.73;100.00;97106.44;5073485;28;20063;-45
2024/01/02 10:41:57;;;;;;;40.65;8.73;;;;;;;8.74;100.00;97105.22;5065598;28;20059;-45
2024/01/02 10:44:30;;;;;;;27.30;7.18;;;;;;;8.76;100.00;97108.38;5067909;28;20104;-48
2024/01/02 10:47:17;;;;;;;36.65;6.28;;;;;;;8.76;100.00;97113.88;5079553;28;20056;-49
2024/01/02 10:50:01;;;;;;;30.65;9.20;;;;;;;8.76;100.00;97113.88;5065186;28;20049;-45
2024/01/02 10:52:37;;;;;;;19.00;5.20;;;;;;;8.77;100.00;97107.16;5066847;28;20064;-47
2024/01/02 10:55:29;;;;;;;34.35;8.90;;;;;;;8.78;100.00;97103.22;5076213;28;20047;-47
2024/01/02 10:58:03;;;;;;;32.33;6.80;;;;;;;8.78;100.00;97108.72;5068849;28;20059;-47
2024/01/02 11:00:39;;;;;;;30.40;7.18;;;;;;;8.79;100.00;97110.25;5075130;28;20497;-45
2024/01/02 11:03:16;;;;;;;29.20;5.03;;;;;;;8.81;100.00;97121.69;5075640;28;20052;-50
2024/01/02 11:05:49;;;;;;;21.25;4.75;;;;;;;8.82;100.00;97114.16;5071880;28;20044;-48
2024/01/02 11:08:25;;;;;;;24.00;5.88;;;;;;;8.82;100.00;97103.91;5070878;28;20052;-48
2024/01/02 11:10:57;;;;;;;23.80;4.47;;;;;;;8.84;100.00;97109.03;5066876;28;20040;-47
2024/01/02 11:13:27;;;;;;;21.95;4.30;;;;;;;8.84;100.00;97106.25;5072771;28;20040;-46
2024/01/02 11:16:08;;;;;;;28.55;7.13;;;;;;;8.86;100.00;97101.88;5068803;28;20160;-49
2024/01/02 11:18:40;;;;;;;25.55;6.15;;;;;;;8.88;100.00;97104.19;5072239;28;20056;-47
2024/01/02 11:21:19;;;;;;;20.30;6.78;;;;;;;8.88;100.00;97099.47;5072576;28;20394;-51
2024/01/02 11:23:49;;;;;;;25.70;6.28;;;;;;;8.90;100.00;97101.78;5070672;28;20055;-45
2024/01/02 11:26:30;;;;;;;28.63;6.68;;;;;;;8.90;100.00;97105.34;5069979;28;20466;-48
2024/01/02 11:29:01;;;;;;;25.90;6.93;;;;;;;8.91;100.00;97104.16;5066173;28;20061;-48
2024/01/02 11:31:34;;;;;;;16.52;6.35;;;;;;;8.93;100.00;97110.00;5071563;28;20251;-48
2024/01/02 11:34:22;;;;;;;26.88;6.55;;;;;;;8.93;100.00;97110.00;5069889;28;20048;-46
2024/01/02 11:37:08;;;;;;;14.93;4.70;;;;;;;8.94;100.00;97106.06;5056357;28;20048;-49